sensor_id;sensor_type;location;lat;lon;timestamp;P1;durP1;ratioP1;P2;durP2;ratioP2
870;SDS011;422;51.280;7.236;2022-10-17T00:00:47;7.80;;;7.00;;
870;SDS011;422;51.280;7.236;2022-10-17T00:03:14;7.43;;;6.70;;
870;SDS011;422;51.280;7.236;2022-10-17T00:05:45;7.03;;;6.07;;
870;SDS011;422;51.280;7.236;2022-10-17T00:08:14;10.20;;;7.40;;
870;SDS011;422;51.280;7.236;2022-10-17T00:10:42;8.73;;;7.53;;
870;SDS011;422;51.280;7.236;2022-10-17T00:13:10;7.17;;;6.40;;
870;SDS011;422;51.280;7.236;2022-10-17T00:15:41;8.73;;;7.03;;
870;SDS011;422;51.280;7.236;2022-10-17T00:18:09;7.33;;;6.53;;
870;SDS011;422;51.280;7.236;2022-10-17T00:20:39;10.50;;;7.00;;
870;SDS011;422;51.280;7.236;2022-10-17T00:23:07;26.50;;;8.50;;
870;SDS011;422;51.280;7.236;2022-10-17T00:25:37;8.33;;;7.27;;
870;SDS011;422;51.280;7.236;2022-10-17T00:28:07;8.73;;;7.30;;
870;SDS011;422;51.280;7.236;2022-10-17T00:30:35;7.67;;;6.97;;
870;SDS011;422;51.280;7.236;2022-10-17T00:33:02;7.53;;;6.80;;
870;SDS011;422;51.280;7.236;2022-10-17T00:35:30;7.10;;;6.50;;
870;SDS011;422;51.280;7.236;2022-10-17T00:37:57;7.63;;;6.93;;
870;SDS011;422;51.280;7.236;2022-10-17T00:40:26;10.83;;;7.13;;
870;SDS011;422;51.280;7.236;2022-10-17T00:42:53;7.20;;;6.53;;
870;SDS011;422;51.280;7.236;2022-10-17T00:45:22;9.43;;;7.13;;
870;SDS011;422;51.280;7.236;2022-10-17T00:47:51;7.27;;;6.17;;
870;SDS011;422;51.280;7.236;2022-10-17T00:50:32;9.73;;;7.00;;
870;SDS011;422;51.280;7.236;2022-10-17T00:53:01;7.40;;;6.80;;
870;SDS011;422;51.280;7.236;2022-10-17T00:55:33;6.90;;;6.30;;
870;SDS011;422;51.280;7.236;2022-10-17T00:58:03;7.50;;;6.53;;
870;SDS011;422;51.280;7.236;2022-10-17T01:00:32;7.53;;;6.73;;
870;SDS011;422;51.280;7.236;2022-10-17T01:03:01;7.20;;;6.27;;
870;SDS011;422;51.280;7.236;2022-10-17T01:05:28;8.03;;;6.57;;
870;SDS011;422;51.280;7.236;2022-10-17T01:07:55;6.70;;;6.10;;
870;SDS011;422;51.280;7.236;2022-10-17T01:10:25;7.47;;;5.80;;
870;SDS011;422;51.280;7.236;2022-10-17T01:13:02;6.90;;;5.87;;
870;SDS011;422;51.280;7.236;2022-10-17T01:15:38;7.23;;;6.53;;
870;SDS011;422;51.280;7.236;2022-10-17T01:18:17;7.27;;;5.10;;
870;SDS011;422;51.280;7.236;2022-10-17T01:20:59;8.87;;;6.40;;
870;SDS011;422;51.280;7.236;2022-10-17T01:23:53;8.73;;;7.33;;
870;SDS011;422;51.280;7.236;2022-10-17T01:26:52;8.27;;;5.90;;
870;SDS011;422;51.280;7.236;2022-10-17T01:29:53;6.50;;;5.90;;
870;SDS011;422;51.280;7.236;2022-10-17T01:32:32;8.30;;;6.57;;
870;SDS011;422;51.280;7.236;2022-10-17T01:35:06;11.63;;;6.77;;
870;SDS011;422;51.280;7.236;2022-10-17T01:37:41;8.27;;;6.53;;
870;SDS011;422;51.280;7.236;2022-10-17T01:40:13;6.83;;;6.20;;
870;SDS011;422;51.280;7.236;2022-10-17T01:46:09;6.70;;;6.00;;
870;SDS011;422;51.280;7.236;2022-10-17T01:48:44;7.73;;;6.00;;
870;SDS011;422;51.280;7.236;2022-10-17T01:51:15;9.47;;;6.07;;
870;SDS011;422;51.280;7.236;2022-10-17T01:53:46;7.60;;;6.47;;
870;SDS011;422;51.280;7.236;2022-10-17T01:56:19;6.10;;;5.50;;
870;SDS011;422;51.280;7.236;2022-10-17T01:58:49;6.60;;;5.90;;
870;SDS011;422;51.280;7.236;2022-10-17T02:01:19;10.63;;;5.80;;
870;SDS011;422;51.280;7.236;2022-10-17T02:03:49;8.50;;;6.27;;
870;SDS011;422;51.280;7.236;2022-10-17T02:06:17;7.70;;;6.70;;
870;SDS011;422;51.280;7.236;2022-10-17T02:08:45;6.80;;;6.00;;
870;SDS011;422;51.280;7.236;2022-10-17T02:11:14;7.30;;;6.60;;
870;SDS011;422;51.280;7.236;2022-10-17T02:13:47;8.40;;;5.63;;
870;SDS011;422;51.280;7.236;2022-10-17T02:16:32;6.70;;;6.00;;
870;SDS011;422;51.280;7.236;2022-10-17T02:19:13;8.03;;;6.30;;
870;SDS011;422;51.280;7.236;2022-10-17T02:21:58;11.40;;;6.47;;
870;SDS011;422;51.280;7.236;2022-10-17T02:24:40;9.77;;;6.50;;
870;SDS011;422;51.280;7.236;2022-10-17T02:27:19;7.00;;;6.40;;
870;SDS011;422;51.280;7.236;2022-10-17T02:29:58;9.50;;;5.93;;
870;SDS011;422;51.280;7.236;2022-10-17T02:32:32;7.30;;;6.70;;
870;SDS011;422;51.280;7.236;2022-10-17T02:35:06;7.10;;;6.07;;
870;SDS011;422;51.280;7.236;2022-10-17T02:37:36;11.00;;;5.70;;
870;SDS011;422;51.280;7.236;2022-10-17T02:40:05;9.83;;;8.27;;
870;SDS011;422;51.280;7.236;2022-10-17T02:42:35;6.23;;;5.73;;
870;SDS011;422;51.280;7.236;2022-10-17T02:45:04;15.20;;;7.10;;
870;SDS011;422;51.280;7.236;2022-10-17T02:47:34;7.60;;;6.67;;
870;SDS011;422;51.280;7.236;2022-10-17T02:50:07;7.30;;;6.60;;
870;SDS011;422;51.280;7.236;2022-10-17T02:52:35;7.20;;;6.50;;
870;SDS011;422;51.280;7.236;2022-10-17T02:55:07;7.00;;;6.30;;
870;SDS011;422;51.280;7.236;2022-10-17T02:57:43;9.77;;;5.90;;
870;SDS011;422;51.280;7.236;2022-10-17T03:00:13;8.57;;;6.57;;
870;SDS011;422;51.280;7.236;2022-10-17T03:02:46;6.70;;;5.63;;
870;SDS011;422;51.280;7.236;2022-10-17T03:05:18;8.30;;;6.10;;
870;SDS011;422;51.280;7.236;2022-10-17T03:07:46;7.70;;;6.20;;
870;SDS011;422;51.280;7.236;2022-10-17T03:10:13;6.23;;;5.63;;
870;SDS011;422;51.280;7.236;2022-10-17T03:12:46;6.30;;;5.70;;
870;SDS011;422;51.280;7.236;2022-10-17T03:15:17;5.97;;;5.33;;
870;SDS011;422;51.280;7.236;2022-10-17T03:17:44;6.30;;;5.70;;
870;SDS011;422;51.280;7.236;2022-10-17T03:20:11;6.93;;;5.93;;
870;SDS011;422;51.280;7.236;2022-10-17T03:22:40;12.10;;;7.00;;
870;SDS011;422;51.280;7.236;2022-10-17T03:25:07;8.10;;;5.27;;
870;SDS011;422;51.280;7.236;2022-10-17T03:27:34;6.13;;;5.63;;
870;SDS011;422;51.280;7.236;2022-10-17T03:30:04;7.13;;;5.70;;
870;SDS011;422;51.280;7.236;2022-10-17T03:32:35;6.73;;;6.13;;
870;SDS011;422;51.280;7.236;2022-10-17T03:35:02;6.07;;;5.47;;
870;SDS011;422;51.280;7.236;2022-10-17T03:37:30;10.00;;;6.07;;
870;SDS011;422;51.280;7.236;2022-10-17T03:39:59;7.00;;;5.47;;
870;SDS011;422;51.280;7.236;2022-10-17T03:42:28;6.30;;;5.70;;
870;SDS011;422;51.280;7.236;2022-10-17T03:44:57;6.33;;;5.73;;
870;SDS011;422;51.280;7.236;2022-10-17T03:47:24;6.70;;;6.00;;
870;SDS011;422;51.280;7.236;2022-10-17T03:49:53;7.10;;;6.40;;
870;SDS011;422;51.280;7.236;2022-10-17T03:52:20;6.93;;;5.67;;
870;SDS011;422;51.280;7.236;2022-10-17T03:54:48;7.37;;;5.63;;
870;SDS011;422;51.280;7.236;2022-10-17T03:57:17;7.70;;;6.50;;
870;SDS011;422;51.280;7.236;2022-10-17T03:59:44;6.07;;;5.47;;
870;SDS011;422;51.280;7.236;2022-10-17T04:02:11;7.90;;;5.60;;
870;SDS011;422;51.280;7.236;2022-10-17T04:04:38;6.33;;;5.73;;
870;SDS011;422;51.280;7.236;2022-10-17T04:07:05;7.40;;;5.97;;
870;SDS011;422;51.280;7.236;2022-10-17T04:09:32;9.83;;;6.80;;
870;SDS011;422;51.280;7.236;2022-10-17T04:12:00;9.07;;;6.40;;
870;SDS011;422;51.280;7.236;2022-10-17T04:14:28;6.10;;;5.10;;
870;SDS011;422;51.280;7.236;2022-10-17T04:16:55;7.50;;;6.10;;
870;SDS011;422;51.280;7.236;2022-10-17T04:19:22;8.37;;;5.73;;
870;SDS011;422;51.280;7.236;2022-10-17T04:21:50;8.00;;;6.80;;
870;SDS011;422;51.280;7.236;2022-10-17T04:24:17;5.40;;;4.90;;
870;SDS011;422;51.280;7.236;2022-10-17T04:26:45;6.93;;;5.70;;
870;SDS011;422;51.280;7.236;2022-10-17T04:29:15;7.03;;;5.77;;
870;SDS011;422;51.280;7.236;2022-10-17T04:31:44;9.23;;;6.60;;
870;SDS011;422;51.280;7.236;2022-10-17T04:34:11;7.73;;;5.20;;
870;SDS011;422;51.280;7.236;2022-10-17T04:36:39;9.63;;;5.50;;
870;SDS011;422;51.280;7.236;2022-10-17T04:39:06;6.30;;;5.70;;
870;SDS011;422;51.280;7.236;2022-10-17T04:41:36;8.43;;;5.47;;
870;SDS011;422;51.280;7.236;2022-10-17T04:44:03;6.10;;;5.43;;
870;SDS011;422;51.280;7.236;2022-10-17T04:46:32;6.70;;;6.03;;
870;SDS011;422;51.280;7.236;2022-10-17T04:49:01;7.47;;;6.30;;
870;SDS011;422;51.280;7.236;2022-10-17T04:51:31;8.00;;;5.97;;
870;SDS011;422;51.280;7.236;2022-10-17T04:54:01;6.20;;;5.60;;
870;SDS011;422;51.280;7.236;2022-10-17T04:56:28;5.70;;;5.10;;
870;SDS011;422;51.280;7.236;2022-10-17T04:58:55;8.97;;;6.20;;
870;SDS011;422;51.280;7.236;2022-10-17T05:01:24;7.50;;;6.37;;
870;SDS011;422;51.280;7.236;2022-10-17T05:03:52;10.30;;;5.33;;
870;SDS011;422;51.280;7.236;2022-10-17T05:06:22;7.20;;;6.50;;
870;SDS011;422;51.280;7.236;2022-10-17T05:08:54;6.90;;;5.80;;
870;SDS011;422;51.280;7.236;2022-10-17T05:11:23;8.23;;;5.70;;
870;SDS011;422;51.280;7.236;2022-10-17T05:13:53;6.80;;;5.93;;
870;SDS011;422;51.280;7.236;2022-10-17T05:16:22;10.40;;;5.83;;
870;SDS011;422;51.280;7.236;2022-10-17T05:18:50;15.43;;;6.93;;
870;SDS011;422;51.280;7.236;2022-10-17T05:21:18;9.87;;;6.07;;
870;SDS011;422;51.280;7.236;2022-10-17T05:23:47;7.33;;;6.60;;
870;SDS011;422;51.280;7.236;2022-10-17T05:26:15;7.40;;;5.50;;
870;SDS011;422;51.280;7.236;2022-10-17T05:28:44;31.00;;;6.90;;
870;SDS011;422;51.280;7.236;2022-10-17T05:31:11;13.90;;;6.70;;
870;SDS011;422;51.280;7.236;2022-10-17T05:33:39;7.60;;;5.70;;
870;SDS011;422;51.280;7.236;2022-10-17T05:36:06;6.33;;;5.70;;
870;SDS011;422;51.280;7.236;2022-10-17T05:38:34;6.57;;;5.97;;
870;SDS011;422;51.280;7.236;2022-10-17T05:41:03;12.33;;;6.30;;
870;SDS011;422;51.280;7.236;2022-10-17T05:43:31;8.10;;;6.20;;
870;SDS011;422;51.280;7.236;2022-10-17T05:46:01;8.43;;;6.90;;
870;SDS011;422;51.280;7.236;2022-10-17T05:48:31;6.33;;;5.70;;
870;SDS011;422;51.280;7.236;2022-10-17T05:50:59;9.20;;;6.90;;
870;SDS011;422;51.280;7.236;2022-10-17T05:53:29;6.60;;;5.83;;
870;SDS011;422;51.280;7.236;2022-10-17T05:55:57;7.60;;;5.60;;
870;SDS011;422;51.280;7.236;2022-10-17T05:58:27;9.87;;;5.70;;
870;SDS011;422;51.280;7.236;2022-10-17T06:00:58;12.47;;;7.20;;
870;SDS011;422;51.280;7.236;2022-10-17T06:03:26;7.97;;;7.00;;
870;SDS011;422;51.280;7.236;2022-10-17T06:05:53;7.03;;;5.37;;
870;SDS011;422;51.280;7.236;2022-10-17T06:08:21;6.10;;;5.60;;
870;SDS011;422;51.280;7.236;2022-10-17T06:10:48;14.00;;;6.53;;
870;SDS011;422;51.280;7.236;2022-10-17T06:13:16;8.27;;;6.20;;
870;SDS011;422;51.280;7.236;2022-10-17T06:15:47;12.53;;;6.37;;
870;SDS011;422;51.280;7.236;2022-10-17T06:18:14;8.63;;;5.83;;
870;SDS011;422;51.280;7.236;2022-10-17T06:20:41;9.07;;;5.20;;
870;SDS011;422;51.280;7.236;2022-10-17T06:23:08;9.67;;;6.13;;
870;SDS011;422;51.280;7.236;2022-10-17T06:25:36;10.00;;;6.57;;
870;SDS011;422;51.280;7.236;2022-10-17T06:28:06;7.63;;;6.90;;
870;SDS011;422;51.280;7.236;2022-10-17T06:30:37;10.50;;;5.90;;
870;SDS011;422;51.280;7.236;2022-10-17T06:33:05;6.67;;;6.00;;
870;SDS011;422;51.280;7.236;2022-10-17T06:35:33;7.77;;;6.87;;
870;SDS011;422;51.280;7.236;2022-10-17T06:38:00;6.37;;;5.70;;
870;SDS011;422;51.280;7.236;2022-10-17T06:40:28;6.87;;;6.23;;
870;SDS011;422;51.280;7.236;2022-10-17T06:42:57;6.67;;;5.60;;
870;SDS011;422;51.280;7.236;2022-10-17T06:45:24;9.60;;;5.60;;
870;SDS011;422;51.280;7.236;2022-10-17T06:47:52;6.20;;;5.30;;
870;SDS011;422;51.280;7.236;2022-10-17T06:50:21;8.33;;;5.80;;
870;SDS011;422;51.280;7.236;2022-10-17T06:52:49;6.40;;;5.80;;
870;SDS011;422;51.280;7.236;2022-10-17T06:55:16;8.63;;;5.63;;
870;SDS011;422;51.280;7.236;2022-10-17T06:57:50;5.60;;;5.03;;
870;SDS011;422;51.280;7.236;2022-10-17T07:00:20;6.50;;;5.03;;
870;SDS011;422;51.280;7.236;2022-10-17T07:02:48;14.50;;;6.00;;
870;SDS011;422;51.280;7.236;2022-10-17T07:05:15;8.80;;;6.43;;
870;SDS011;422;51.280;7.236;2022-10-17T07:07:45;6.70;;;5.40;;
870;SDS011;422;51.280;7.236;2022-10-17T07:10:12;7.60;;;5.60;;
870;SDS011;422;51.280;7.236;2022-10-17T07:12:40;8.93;;;5.80;;
870;SDS011;422;51.280;7.236;2022-10-17T07:15:11;6.13;;;5.10;;
870;SDS011;422;51.280;7.236;2022-10-17T07:17:38;10.53;;;6.70;;
870;SDS011;422;51.280;7.236;2022-10-17T07:20:08;7.00;;;5.17;;
870;SDS011;422;51.280;7.236;2022-10-17T07:22:36;8.27;;;5.73;;
870;SDS011;422;51.280;7.236;2022-10-17T07:25:07;6.23;;;5.00;;
870;SDS011;422;51.280;7.236;2022-10-17T07:27:34;7.63;;;5.70;;
870;SDS011;422;51.280;7.236;2022-10-17T07:30:05;7.90;;;5.30;;
870;SDS011;422;51.280;7.236;2022-10-17T07:32:33;8.03;;;5.47;;
870;SDS011;422;51.280;7.236;2022-10-17T07:35:02;6.27;;;5.67;;
870;SDS011;422;51.280;7.236;2022-10-17T07:37:33;7.27;;;5.30;;
870;SDS011;422;51.280;7.236;2022-10-17T07:40:03;6.90;;;5.20;;
870;SDS011;422;51.280;7.236;2022-10-17T07:42:38;8.23;;;5.60;;
870;SDS011;422;51.280;7.236;2022-10-17T07:45:07;5.90;;;4.73;;
870;SDS011;422;51.280;7.236;2022-10-17T07:47:34;7.63;;;5.50;;
870;SDS011;422;51.280;7.236;2022-10-17T07:50:02;5.67;;;5.17;;
870;SDS011;422;51.280;7.236;2022-10-17T07:52:29;5.20;;;4.77;;
870;SDS011;422;51.280;7.236;2022-10-17T07:54:59;5.77;;;5.20;;
870;SDS011;422;51.280;7.236;2022-10-17T07:57:28;5.87;;;4.83;;
870;SDS011;422;51.280;7.236;2022-10-17T07:59:55;7.40;;;5.20;;
870;SDS011;422;51.280;7.236;2022-10-17T08:02:23;9.03;;;4.87;;
870;SDS011;422;51.280;7.236;2022-10-17T08:04:51;6.83;;;5.30;;
870;SDS011;422;51.280;7.236;2022-10-17T08:07:19;8.63;;;5.67;;
870;SDS011;422;51.280;7.236;2022-10-17T08:09:47;11.30;;;5.20;;
870;SDS011;422;51.280;7.236;2022-10-17T08:12:14;7.20;;;5.20;;
870;SDS011;422;51.280;7.236;2022-10-17T08:14:43;5.57;;;5.07;;
870;SDS011;422;51.280;7.236;2022-10-17T08:17:15;6.37;;;5.13;;
870;SDS011;422;51.280;7.236;2022-10-17T08:19:42;5.70;;;5.10;;
870;SDS011;422;51.280;7.236;2022-10-17T08:22:09;5.97;;;5.37;;
870;SDS011;422;51.280;7.236;2022-10-17T08:24:37;8.30;;;5.70;;
870;SDS011;422;51.280;7.236;2022-10-17T08:27:06;7.10;;;5.37;;
870;SDS011;422;51.280;7.236;2022-10-17T08:29:37;6.60;;;4.70;;
870;SDS011;422;51.280;7.236;2022-10-17T08:32:06;6.23;;;5.10;;
870;SDS011;422;51.280;7.236;2022-10-17T08:34:34;8.00;;;5.00;;
870;SDS011;422;51.280;7.236;2022-10-17T08:37:01;6.30;;;5.07;;
870;SDS011;422;51.280;7.236;2022-10-17T08:39:29;6.47;;;4.63;;
870;SDS011;422;51.280;7.236;2022-10-17T08:42:01;7.07;;;5.00;;
870;SDS011;422;51.280;7.236;2022-10-17T08:44:38;9.77;;;4.97;;
870;SDS011;422;51.280;7.236;2022-10-17T08:47:18;6.20;;;4.83;;
870;SDS011;422;51.280;7.236;2022-10-17T08:49:51;4.87;;;4.40;;
870;SDS011;422;51.280;7.236;2022-10-17T08:52:28;6.20;;;5.33;;
870;SDS011;422;51.280;7.236;2022-10-17T08:55:01;4.40;;;3.90;;
870;SDS011;422;51.280;7.236;2022-10-17T08:57:39;5.43;;;4.47;;
870;SDS011;422;51.280;7.236;2022-10-17T09:00:10;6.03;;;4.90;;
870;SDS011;422;51.280;7.236;2022-10-17T09:02:46;6.50;;;4.63;;
870;SDS011;422;51.280;7.236;2022-10-17T09:05:27;4.67;;;4.23;;
870;SDS011;422;51.280;7.236;2022-10-17T09:08:08;6.40;;;3.70;;
870;SDS011;422;51.280;7.236;2022-10-17T09:10:45;6.13;;;4.40;;
870;SDS011;422;51.280;7.236;2022-10-17T09:13:32;5.60;;;5.10;;
870;SDS011;422;51.280;7.236;2022-10-17T09:16:22;5.13;;;4.63;;
870;SDS011;422;51.280;7.236;2022-10-17T09:19:06;4.80;;;4.40;;
870;SDS011;422;51.280;7.236;2022-10-17T09:21:39;6.43;;;4.33;;
870;SDS011;422;51.280;7.236;2022-10-17T09:24:14;5.23;;;4.73;;
870;SDS011;422;51.280;7.236;2022-10-17T09:26:44;8.33;;;4.97;;
870;SDS011;422;51.280;7.236;2022-10-17T09:29:14;5.10;;;3.93;;
870;SDS011;422;51.280;7.236;2022-10-17T09:31:48;9.20;;;4.40;;
870;SDS011;422;51.280;7.236;2022-10-17T09:34:27;7.60;;;4.43;;
870;SDS011;422;51.280;7.236;2022-10-17T09:36:56;7.00;;;4.27;;
870;SDS011;422;51.280;7.236;2022-10-17T09:39:25;5.60;;;4.33;;
870;SDS011;422;51.280;7.236;2022-10-17T09:41:56;6.53;;;5.10;;
870;SDS011;422;51.280;7.236;2022-10-17T09:44:33;5.27;;;4.23;;
870;SDS011;422;51.280;7.236;2022-10-17T09:47:11;4.87;;;4.37;;
870;SDS011;422;51.280;7.236;2022-10-17T09:49:46;4.60;;;4.20;;
870;SDS011;422;51.280;7.236;2022-10-17T09:52:14;8.10;;;4.50;;
870;SDS011;422;51.280;7.236;2022-10-17T09:54:48;6.30;;;4.30;;
870;SDS011;422;51.280;7.236;2022-10-17T09:57:17;5.83;;;4.10;;
870;SDS011;422;51.280;7.236;2022-10-17T09:59:46;10.20;;;3.73;;
870;SDS011;422;51.280;7.236;2022-10-17T10:02:22;5.07;;;4.33;;
870;SDS011;422;51.280;7.236;2022-10-17T10:04:53;4.60;;;4.20;;
870;SDS011;422;51.280;7.236;2022-10-17T10:07:22;7.67;;;5.33;;
870;SDS011;422;51.280;7.236;2022-10-17T10:09:53;7.67;;;5.33;;
870;SDS011;422;51.280;7.236;2022-10-17T10:12:22;7.07;;;4.67;;
870;SDS011;422;51.280;7.236;2022-10-17T10:14:52;6.13;;;4.50;;
870;SDS011;422;51.280;7.236;2022-10-17T10:20:26;13.20;;;5.07;;
870;SDS011;422;51.280;7.236;2022-10-17T10:23:05;8.57;;;4.37;;
870;SDS011;422;51.280;7.236;2022-10-17T10:25:41;5.17;;;4.67;;
870;SDS011;422;51.280;7.236;2022-10-17T10:28:17;8.20;;;4.87;;
870;SDS011;422;51.280;7.236;2022-10-17T10:30:48;6.90;;;4.40;;
870;SDS011;422;51.280;7.236;2022-10-17T10:33:17;4.70;;;4.17;;
870;SDS011;422;51.280;7.236;2022-10-17T10:35:52;5.07;;;4.57;;
870;SDS011;422;51.280;7.236;2022-10-17T10:38:22;5.90;;;4.53;;
870;SDS011;422;51.280;7.236;2022-10-17T10:40:55;11.13;;;5.47;;
870;SDS011;422;51.280;7.236;2022-10-17T10:43:29;6.70;;;4.40;;
870;SDS011;422;51.280;7.236;2022-10-17T10:46:01;6.87;;;4.93;;
870;SDS011;422;51.280;7.236;2022-10-17T10:48:31;6.03;;;5.10;;
870;SDS011;422;51.280;7.236;2022-10-17T10:51:03;5.73;;;4.40;;
870;SDS011;422;51.280;7.236;2022-10-17T10:53:43;6.00;;;4.70;;
870;SDS011;422;51.280;7.236;2022-10-17T10:56:13;7.87;;;5.10;;
870;SDS011;422;51.280;7.236;2022-10-17T10:58:52;7.63;;;4.70;;
870;SDS011;422;51.280;7.236;2022-10-17T11:01:28;5.60;;;4.43;;
870;SDS011;422;51.280;7.236;2022-10-17T11:04:10;7.53;;;4.50;;
870;SDS011;422;51.280;7.236;2022-10-17T11:06:48;7.70;;;4.80;;
870;SDS011;422;51.280;7.236;2022-10-17T11:09:25;5.60;;;4.10;;
870;SDS011;422;51.280;7.236;2022-10-17T11:12:00;6.80;;;5.43;;
870;SDS011;422;51.280;7.236;2022-10-17T11:14:36;5.60;;;4.23;;
870;SDS011;422;51.280;7.236;2022-10-17T11:17:13;5.20;;;4.47;;
870;SDS011;422;51.280;7.236;2022-10-17T11:19:49;7.20;;;4.20;;
870;SDS011;422;51.280;7.236;2022-10-17T11:22:31;8.30;;;4.87;;
870;SDS011;422;51.280;7.236;2022-10-17T11:25:03;9.50;;;4.70;;
870;SDS011;422;51.280;7.236;2022-10-17T11:27:33;7.30;;;5.27;;
870;SDS011;422;51.280;7.236;2022-10-17T11:30:01;7.10;;;4.63;;
870;SDS011;422;51.280;7.236;2022-10-17T11:32:33;5.33;;;4.53;;
870;SDS011;422;51.280;7.236;2022-10-17T11:35:05;10.77;;;4.60;;
870;SDS011;422;51.280;7.236;2022-10-17T11:37:42;5.97;;;4.50;;
870;SDS011;422;51.280;7.236;2022-10-17T11:40:14;7.57;;;4.97;;
870;SDS011;422;51.280;7.236;2022-10-17T11:42:45;8.47;;;5.40;;
870;SDS011;422;51.280;7.236;2022-10-17T11:45:19;7.47;;;4.10;;
870;SDS011;422;51.280;7.236;2022-10-17T11:47:49;6.20;;;5.10;;
870;SDS011;422;51.280;7.236;2022-10-17T11:50:21;7.03;;;5.33;;
870;SDS011;422;51.280;7.236;2022-10-17T11:52:55;5.77;;;4.23;;
870;SDS011;422;51.280;7.236;2022-10-17T11:55:26;5.17;;;4.40;;
870;SDS011;422;51.280;7.236;2022-10-17T11:58:00;7.00;;;4.50;;
870;SDS011;422;51.280;7.236;2022-10-17T12:00:47;5.43;;;3.90;;
870;SDS011;422;51.280;7.236;2022-10-17T12:03:33;8.00;;;5.20;;
870;SDS011;422;51.280;7.236;2022-10-17T12:06:16;5.20;;;4.20;;
870;SDS011;422;51.280;7.236;2022-10-17T12:08:57;5.67;;;4.30;;
870;SDS011;422;51.280;7.236;2022-10-17T12:11:37;7.53;;;5.20;;
870;SDS011;422;51.280;7.236;2022-10-17T12:14:37;5.27;;;4.77;;
870;SDS011;422;51.280;7.236;2022-10-17T12:26:09;10.70;;;4.97;;
870;SDS011;422;51.280;7.236;2022-10-17T12:28:53;5.63;;;4.93;;
870;SDS011;422;51.280;7.236;2022-10-17T12:31:21;8.00;;;5.10;;
870;SDS011;422;51.280;7.236;2022-10-17T12:33:52;6.70;;;5.00;;
870;SDS011;422;51.280;7.236;2022-10-17T12:42:30;5.40;;;4.90;;
870;SDS011;422;51.280;7.236;2022-10-17T12:45:01;5.40;;;4.90;;
870;SDS011;422;51.280;7.236;2022-10-17T12:47:50;6.57;;;5.10;;
870;SDS011;422;51.280;7.236;2022-10-17T12:53:21;6.83;;;5.80;;
870;SDS011;422;51.280;7.236;2022-10-17T12:55:57;8.47;;;4.90;;
870;SDS011;422;51.280;7.236;2022-10-17T12:58:30;6.50;;;4.77;;
870;SDS011;422;51.280;7.236;2022-10-17T13:00:58;5.27;;;4.73;;
870;SDS011;422;51.280;7.236;2022-10-17T13:03:27;7.60;;;5.60;;
870;SDS011;422;51.280;7.236;2022-10-17T13:05:58;7.33;;;5.70;;
870;SDS011;422;51.280;7.236;2022-10-17T13:08:29;5.23;;;4.60;;
870;SDS011;422;51.280;7.236;2022-10-17T13:11:04;8.07;;;5.43;;
870;SDS011;422;51.280;7.236;2022-10-17T13:13:38;6.07;;;4.97;;
870;SDS011;422;51.280;7.236;2022-10-17T13:16:10;9.40;;;5.10;;
870;SDS011;422;51.280;7.236;2022-10-17T13:18:55;5.90;;;5.27;;
870;SDS011;422;51.280;7.236;2022-10-17T13:21:23;6.53;;;4.80;;
870;SDS011;422;51.280;7.236;2022-10-17T13:23:54;8.50;;;4.43;;
870;SDS011;422;51.280;7.236;2022-10-17T13:26:25;7.80;;;4.80;;
870;SDS011;422;51.280;7.236;2022-10-17T13:29:02;5.30;;;4.80;;
870;SDS011;422;51.280;7.236;2022-10-17T13:31:37;7.03;;;4.50;;
870;SDS011;422;51.280;7.236;2022-10-17T13:34:12;7.10;;;4.87;;
870;SDS011;422;51.280;7.236;2022-10-17T13:36:42;7.43;;;5.10;;
870;SDS011;422;51.280;7.236;2022-10-17T13:39:17;6.80;;;5.10;;
870;SDS011;422;51.280;7.236;2022-10-17T13:41:51;7.57;;;4.67;;
870;SDS011;422;51.280;7.236;2022-10-17T13:44:24;13.40;;;5.23;;
870;SDS011;422;51.280;7.236;2022-10-17T13:46:54;6.80;;;5.27;;
870;SDS011;422;51.280;7.236;2022-10-17T13:49:28;7.90;;;5.30;;
870;SDS011;422;51.280;7.236;2022-10-17T13:51:59;5.93;;;5.30;;
870;SDS011;422;51.280;7.236;2022-10-17T13:54:32;6.37;;;5.20;;
870;SDS011;422;51.280;7.236;2022-10-17T13:57:13;5.70;;;5.07;;
870;SDS011;422;51.280;7.236;2022-10-17T13:59:45;7.47;;;5.87;;
870;SDS011;422;51.280;7.236;2022-10-17T14:02:14;6.23;;;5.03;;
870;SDS011;422;51.280;7.236;2022-10-17T14:04:44;8.63;;;5.70;;
870;SDS011;422;51.280;7.236;2022-10-17T14:07:22;6.37;;;5.80;;
870;SDS011;422;51.280;7.236;2022-10-17T14:09:52;7.10;;;5.47;;
870;SDS011;422;51.280;7.236;2022-10-17T14:12:19;6.00;;;5.40;;
870;SDS011;422;51.280;7.236;2022-10-17T14:14:52;8.60;;;6.40;;
870;SDS011;422;51.280;7.236;2022-10-17T14:17:21;10.53;;;6.20;;
870;SDS011;422;51.280;7.236;2022-10-17T14:19:53;8.87;;;6.10;;
870;SDS011;422;51.280;7.236;2022-10-17T14:22:29;7.30;;;5.80;;
870;SDS011;422;51.280;7.236;2022-10-17T14:25:00;11.20;;;5.73;;
870;SDS011;422;51.280;7.236;2022-10-17T14:27:31;10.60;;;5.90;;
870;SDS011;422;51.280;7.236;2022-10-17T14:30:06;5.57;;;5.07;;
870;SDS011;422;51.280;7.236;2022-10-17T14:33:02;8.03;;;6.50;;
870;SDS011;422;51.280;7.236;2022-10-17T14:35:33;10.03;;;6.47;;
870;SDS011;422;51.280;7.236;2022-10-17T14:38:02;8.57;;;6.50;;
870;SDS011;422;51.280;7.236;2022-10-17T14:40:31;27.70;;;13.40;;
870;SDS011;422;51.280;7.236;2022-10-17T14:43:01;10.80;;;7.53;;
870;SDS011;422;51.280;7.236;2022-10-17T14:45:33;9.20;;;6.20;;
870;SDS011;422;51.280;7.236;2022-10-17T14:48:06;9.20;;;5.47;;
870;SDS011;422;51.280;7.236;2022-10-17T14:50:37;7.80;;;4.90;;
870;SDS011;422;51.280;7.236;2022-10-17T14:53:17;7.50;;;5.33;;
870;SDS011;422;51.280;7.236;2022-10-17T14:55:53;9.83;;;5.73;;
870;SDS011;422;51.280;7.236;2022-10-17T14:58:23;9.47;;;6.37;;
870;SDS011;422;51.280;7.236;2022-10-17T15:00:56;9.70;;;5.53;;
870;SDS011;422;51.280;7.236;2022-10-17T15:03:25;7.57;;;5.77;;
870;SDS011;422;51.280;7.236;2022-10-17T15:05:53;5.80;;;5.20;;
870;SDS011;422;51.280;7.236;2022-10-17T15:08:42;6.10;;;5.00;;
870;SDS011;422;51.280;7.236;2022-10-17T15:11:11;8.00;;;5.57;;
870;SDS011;422;51.280;7.236;2022-10-17T15:13:38;8.97;;;5.67;;
870;SDS011;422;51.280;7.236;2022-10-17T15:16:10;8.80;;;5.77;;
870;SDS011;422;51.280;7.236;2022-10-17T15:18:41;13.73;;;6.43;;
870;SDS011;422;51.280;7.236;2022-10-17T15:21:12;6.27;;;5.67;;
870;SDS011;422;51.280;7.236;2022-10-17T15:23:42;9.20;;;5.43;;
870;SDS011;422;51.280;7.236;2022-10-17T15:26:13;11.43;;;5.70;;
870;SDS011;422;51.280;7.236;2022-10-17T15:28:41;10.00;;;5.10;;
870;SDS011;422;51.280;7.236;2022-10-17T15:31:16;6.07;;;5.47;;
870;SDS011;422;51.280;7.236;2022-10-17T15:33:44;7.07;;;6.30;;
870;SDS011;422;51.280;7.236;2022-10-17T15:36:23;7.07;;;5.70;;
870;SDS011;422;51.280;7.236;2022-10-17T15:38:55;7.30;;;5.43;;
870;SDS011;422;51.280;7.236;2022-10-17T15:41:25;7.73;;;5.40;;
870;SDS011;422;51.280;7.236;2022-10-17T15:43:55;6.90;;;5.63;;
870;SDS011;422;51.280;7.236;2022-10-17T15:46:24;5.87;;;5.10;;
870;SDS011;422;51.280;7.236;2022-10-17T15:48:52;9.20;;;5.90;;
870;SDS011;422;51.280;7.236;2022-10-17T15:51:21;9.83;;;5.70;;
870;SDS011;422;51.280;7.236;2022-10-17T15:53:49;7.53;;;5.00;;
870;SDS011;422;51.280;7.236;2022-10-17T15:56:18;11.93;;;6.10;;
870;SDS011;422;51.280;7.236;2022-10-17T15:58:48;7.17;;;5.70;;
870;SDS011;422;51.280;7.236;2022-10-17T16:01:18;8.03;;;5.83;;
870;SDS011;422;51.280;7.236;2022-10-17T16:03:48;9.40;;;6.60;;
870;SDS011;422;51.280;7.236;2022-10-17T16:06:20;9.10;;;5.80;;
870;SDS011;422;51.280;7.236;2022-10-17T16:08:48;7.80;;;5.20;;
870;SDS011;422;51.280;7.236;2022-10-17T16:11:18;12.77;;;6.80;;
870;SDS011;422;51.280;7.236;2022-10-17T16:13:52;8.20;;;5.67;;
870;SDS011;422;51.280;7.236;2022-10-17T16:16:22;8.30;;;5.70;;
870;SDS011;422;51.280;7.236;2022-10-17T16:18:53;5.93;;;5.30;;
870;SDS011;422;51.280;7.236;2022-10-17T16:21:23;10.23;;;6.30;;
870;SDS011;422;51.280;7.236;2022-10-17T16:23:52;10.63;;;6.47;;
870;SDS011;422;51.280;7.236;2022-10-17T16:26:20;10.57;;;5.90;;
870;SDS011;422;51.280;7.236;2022-10-17T16:28:47;8.00;;;5.53;;
870;SDS011;422;51.280;7.236;2022-10-17T16:31:18;9.77;;;5.63;;
870;SDS011;422;51.280;7.236;2022-10-17T16:33:48;9.13;;;6.43;;
870;SDS011;422;51.280;7.236;2022-10-17T16:36:18;14.67;;;8.17;;